sensor_id;sensor_type;location;lat;lon;timestamp;temperature;humidity
8527;DHT22;4301;48.362;8.478;2022-12-18T00:02:07;-13.10;94.00
8527;DHT22;4301;48.362;8.478;2022-12-18T00:04:35;-13.20;99.90
8527;DHT22;4301;48.362;8.478;2022-12-18T00:07:02;-13.10;99.90
8527;DHT22;4301;48.362;8.478;2022-12-18T00:09:29;-13.10;99.90
8527;DHT22;4301;48.362;8.478;2022-12-18T00:11:56;-13.10;99.90
8527;DHT22;4301;48.362;8.478;2022-12-18T00:14:23;-13.20;1.00
8527;DHT22;4301;48.362;8.478;2022-12-18T00:16:50;-13.20;1.00
8527;DHT22;4301;48.362;8.478;2022-12-18T00:19:17;-13.10;99.90
8527;DHT22;4301;48.362;8.478;2022-12-18T00:21:45;-13.00;1.00
8527;DHT22;4301;48.362;8.478;2022-12-18T00:24:12;-12.90;99.90
8527;DHT22;4301;48.362;8.478;2022-12-18T00:26:39;-12.90;99.40
8527;DHT22;4301;48.362;8.478;2022-12-18T00:29:09;-12.70;99.90
8527;DHT22;4301;48.362;8.478;2022-12-18T00:31:37;-12.60;99.90
8527;DHT22;4301;48.362;8.478;2022-12-18T00:34:04;-12.60;99.90
8527;DHT22;4301;48.362;8.478;2022-12-18T00:36:33;-12.50;99.90
8527;DHT22;4301;48.362;8.478;2022-12-18T00:39:04;-12.40;99.90
8527;DHT22;4301;48.362;8.478;2022-12-18T00:41:31;-12.30;99.90
8527;DHT22;4301;48.362;8.478;2022-12-18T00:44:17;-12.20;99.90
8527;DHT22;4301;48.362;8.478;2022-12-18T00:46:45;-12.20;99.90
8527;DHT22;4301;48.362;8.478;2022-12-18T00:49:12;-12.10;99.90
8527;DHT22;4301;48.362;8.478;2022-12-18T00:51:39;-12.00;1.00
8527;DHT22;4301;48.362;8.478;2022-12-18T00:54:07;-11.90;1.00
8527;DHT22;4301;48.362;8.478;2022-12-18T00:56:35;-11.80;1.00
8527;DHT22;4301;48.362;8.478;2022-12-18T00:59:03;-11.70;1.00
8527;DHT22;4301;48.362;8.478;2022-12-18T01:01:30;-11.60;99.90
8527;DHT22;4301;48.362;8.478;2022-12-18T01:03:58;-11.60;99.90
8527;DHT22;4301;48.362;8.478;2022-12-18T01:06:26;-11.70;1.00
8527;DHT22;4301;48.362;8.478;2022-12-18T01:08:52;-11.70;1.00
8527;DHT22;4301;48.362;8.478;2022-12-18T01:11:21;-11.60;1.00
8527;DHT22;4301;48.362;8.478;2022-12-18T01:13:49;-11.50;1.00
8527;DHT22;4301;48.362;8.478;2022-12-18T01:16:17;-11.50;1.00
8527;DHT22;4301;48.362;8.478;2022-12-18T01:18:44;-11.40;1.00
8527;DHT22;4301;48.362;8.478;2022-12-18T01:21:14;-11.40;10.70
8527;DHT22;4301;48.362;8.478;2022-12-18T01:23:41;-11.40;25.70
8527;DHT22;4301;48.362;8.478;2022-12-18T01:26:10;-11.40;1.60
8527;DHT22;4301;48.362;8.478;2022-12-18T01:28:39;-11.40;1.00
8527;DHT22;4301;48.362;8.478;2022-12-18T01:31:14;-11.40;1.00
8527;DHT22;4301;48.362;8.478;2022-12-18T01:33:42;-11.30;29.20
8527;DHT22;4301;48.362;8.478;2022-12-18T01:36:15;-11.20;33.20
8527;DHT22;4301;48.362;8.478;2022-12-18T01:38:42;-11.10;25.60
8527;DHT22;4301;48.362;8.478;2022-12-18T01:41:09;-11.10;30.20
8527;DHT22;4301;48.362;8.478;2022-12-18T01:43:47;-11.10;21.10
8527;DHT22;4301;48.362;8.478;2022-12-18T01:46:15;-11.10;25.10
8527;DHT22;4301;48.362;8.478;2022-12-18T01:48:43;-11.20;28.50
8527;DHT22;4301;48.362;8.478;2022-12-18T01:51:11;-11.10;43.80
8527;DHT22;4301;48.362;8.478;2022-12-18T01:53:40;-11.00;56.30
8527;DHT22;4301;48.362;8.478;2022-12-18T01:56:11;-11.00;48.40
8527;DHT22;4301;48.362;8.478;2022-12-18T01:58:45;-10.90;62.80
8527;DHT22;4301;48.362;8.478;2022-12-18T02:01:14;-10.80;89.00
8527;DHT22;4301;48.362;8.478;2022-12-18T02:03:42;-10.80;87.30
8527;DHT22;4301;48.362;8.478;2022-12-18T02:06:13;-10.80;93.50
8527;DHT22;4301;48.362;8.478;2022-12-18T02:08:48;-10.70;98.10
8527;DHT22;4301;48.362;8.478;2022-12-18T02:11:24;-10.60;99.90
8527;DHT22;4301;48.362;8.478;2022-12-18T02:14:00;-10.50;99.90
8527;DHT22;4301;48.362;8.478;2022-12-18T02:16:36;-10.50;99.90
8527;DHT22;4301;48.362;8.478;2022-12-18T02:19:15;-10.40;99.90
8527;DHT22;4301;48.362;8.478;2022-12-18T02:21:51;-10.40;97.80
8527;DHT22;4301;48.362;8.478;2022-12-18T02:24:29;-10.40;97.10
8527;DHT22;4301;48.362;8.478;2022-12-18T02:27:01;-10.30;99.90
8527;DHT22;4301;48.362;8.478;2022-12-18T02:29:32;-10.30;97.70
8527;DHT22;4301;48.362;8.478;2022-12-18T02:32:01;-10.20;99.90
8527;DHT22;4301;48.362;8.478;2022-12-18T02:34:31;-10.10;99.90
8527;DHT22;4301;48.362;8.478;2022-12-18T02:37:02;-10.10;99.90
8527;DHT22;4301;48.362;8.478;2022-12-18T02:39:32;-10.00;98.50
8527;DHT22;4301;48.362;8.478;2022-12-18T02:42:01;-9.90;96.50
8527;DHT22;4301;48.362;8.478;2022-12-18T02:44:33;-9.90;92.10
8527;DHT22;4301;48.362;8.478;2022-12-18T02:47:01;-9.80;85.00
8527;DHT22;4301;48.362;8.478;2022-12-18T02:49:34;-9.80;75.70
8527;DHT22;4301;48.362;8.478;2022-12-18T02:52:10;-9.80;69.80
8527;DHT22;4301;48.362;8.478;2022-12-18T02:54:52;-9.80;68.50
8527;DHT22;4301;48.362;8.478;2022-12-18T02:57:27;-9.70;63.30
8527;DHT22;4301;48.362;8.478;2022-12-18T03:00:00;-9.70;60.10
8527;DHT22;4301;48.362;8.478;2022-12-18T03:02:33;-9.70;77.60
8527;DHT22;4301;48.362;8.478;2022-12-18T03:05:07;-9.60;73.00
8527;DHT22;4301;48.362;8.478;2022-12-18T03:07:40;-9.60;77.70
8527;DHT22;4301;48.362;8.478;2022-12-18T03:10:13;-9.50;77.10
8527;DHT22;4301;48.362;8.478;2022-12-18T03:12:44;-9.50;71.00
8527;DHT22;4301;48.362;8.478;2022-12-18T03:15:19;-9.50;64.50
8527;DHT22;4301;48.362;8.478;2022-12-18T03:17:59;-9.40;60.10
8527;DHT22;4301;48.362;8.478;2022-12-18T03:20:30;-9.40;53.10
8527;DHT22;4301;48.362;8.478;2022-12-18T03:23:04;-9.30;46.60
8527;DHT22;4301;48.362;8.478;2022-12-18T03:25:33;-9.30;40.90
8527;DHT22;4301;48.362;8.478;2022-12-18T03:28:03;-9.30;12.00
8527;DHT22;4301;48.362;8.478;2022-12-18T03:30:33;-9.20;22.00
8527;DHT22;4301;48.362;8.478;2022-12-18T03:33:07;-9.20;32.00
8527;DHT22;4301;48.362;8.478;2022-12-18T03:35:39;-9.20;44.50
8527;DHT22;4301;48.362;8.478;2022-12-18T03:38:06;-9.20;33.30
8527;DHT22;4301;48.362;8.478;2022-12-18T03:40:41;-9.10;47.10
8527;DHT22;4301;48.362;8.478;2022-12-18T03:43:17;-9.20;40.40
8527;DHT22;4301;48.362;8.478;2022-12-18T03:45:51;-9.20;47.40
8527;DHT22;4301;48.362;8.478;2022-12-18T03:48:25;-9.10;51.80
8527;DHT22;4301;48.362;8.478;2022-12-18T03:50:57;-9.10;43.00
8527;DHT22;4301;48.362;8.478;2022-12-18T03:53:35;-9.00;50.80
8527;DHT22;4301;48.362;8.478;2022-12-18T03:56:05;-8.90;55.00
8527;DHT22;4301;48.362;8.478;2022-12-18T03:58:35;-8.90;44.40
8527;DHT22;4301;48.362;8.478;2022-12-18T04:01:05;-8.80;26.00
8527;DHT22;4301;48.362;8.478;2022-12-18T04:03:36;-8.90;14.20
8527;DHT22;4301;48.362;8.478;2022-12-18T04:06:05;-8.80;17.30
8527;DHT22;4301;48.362;8.478;2022-12-18T04:08:33;-8.80;1.00
8527;DHT22;4301;48.362;8.478;2022-12-18T04:11:01;-8.90;1.00
8527;DHT22;4301;48.362;8.478;2022-12-18T04:13:30;-8.80;7.00
8527;DHT22;4301;48.362;8.478;2022-12-18T04:16:00;-8.80;10.30
8527;DHT22;4301;48.362;8.478;2022-12-18T04:18:26;-8.70;27.50
8527;DHT22;4301;48.362;8.478;2022-12-18T04:20:53;-8.80;10.00
8527;DHT22;4301;48.362;8.478;2022-12-18T04:23:20;-8.70;12.30
8527;DHT22;4301;48.362;8.478;2022-12-18T04:25:47;-8.70;14.00
8527;DHT22;4301;48.362;8.478;2022-12-18T04:28:14;-8.60;12.20
8527;DHT22;4301;48.362;8.478;2022-12-18T04:30:41;-8.60;9.90
8527;DHT22;4301;48.362;8.478;2022-12-18T04:33:11;-8.70;5.50
8527;DHT22;4301;48.362;8.478;2022-12-18T04:35:39;-8.70;6.10
8527;DHT22;4301;48.362;8.478;2022-12-18T04:38:06;-8.60;19.40
8527;DHT22;4301;48.362;8.478;2022-12-18T04:40:34;-8.60;1.00
8527;DHT22;4301;48.362;8.478;2022-12-18T04:43:02;-8.60;4.50
8527;DHT22;4301;48.362;8.478;2022-12-18T04:45:29;-8.60;1.00
8527;DHT22;4301;48.362;8.478;2022-12-18T04:47:57;-8.60;2.10
8527;DHT22;4301;48.362;8.478;2022-12-18T04:50:25;-8.50;15.60
8527;DHT22;4301;48.362;8.478;2022-12-18T04:52:52;-8.50;5.80
8527;DHT22;4301;48.362;8.478;2022-12-18T04:55:20;-8.50;1.00
8527;DHT22;4301;48.362;8.478;2022-12-18T04:57:47;-8.50;1.00
8527;DHT22;4301;48.362;8.478;2022-12-18T05:00:14;-8.40;17.10
8527;DHT22;4301;48.362;8.478;2022-12-18T05:02:41;-8.40;23.20
8527;DHT22;4301;48.362;8.478;2022-12-18T05:05:08;-8.30;18.90
8527;DHT22;4301;48.362;8.478;2022-12-18T05:07:37;-8.30;15.60
8527;DHT22;4301;48.362;8.478;2022-12-18T05:10:05;-8.30;3.00
8527;DHT22;4301;48.362;8.478;2022-12-18T05:12:32;-8.30;4.90
8527;DHT22;4301;48.362;8.478;2022-12-18T05:14:59;-8.30;12.50
8527;DHT22;4301;48.362;8.478;2022-12-18T05:17:28;-8.20;25.80
8527;DHT22;4301;48.362;8.478;2022-12-18T05:19:55;-8.20;13.10
8527;DHT22;4301;48.362;8.478;2022-12-18T05:22:22;-8.10;7.70
8527;DHT22;4301;48.362;8.478;2022-12-18T05:24:51;-8.10;10.00
8527;DHT22;4301;48.362;8.478;2022-12-18T05:27:18;-8.20;1.00
8527;DHT22;4301;48.362;8.478;2022-12-18T05:29:46;-8.20;12.70
8527;DHT22;4301;48.362;8.478;2022-12-18T05:32:13;-8.20;1.00
8527;DHT22;4301;48.362;8.478;2022-12-18T05:34:40;-8.20;2.50
8527;DHT22;4301;48.362;8.478;2022-12-18T05:37:07;-8.10;11.20
8527;DHT22;4301;48.362;8.478;2022-12-18T05:39:34;-8.10;1.00
8527;DHT22;4301;48.362;8.478;2022-12-18T05:42:02;-8.10;16.10
8527;DHT22;4301;48.362;8.478;2022-12-18T05:44:29;-8.00;24.30
8527;DHT22;4301;48.362;8.478;2022-12-18T05:46:56;-8.00;12.90
8527;DHT22;4301;48.362;8.478;2022-12-18T05:49:23;-7.90;29.60
8527;DHT22;4301;48.362;8.478;2022-12-18T05:51:50;-7.90;19.90
8527;DHT22;4301;48.362;8.478;2022-12-18T05:54:17;-7.80;17.40
8527;DHT22;4301;48.362;8.478;2022-12-18T05:56:44;-7.80;2.60
8527;DHT22;4301;48.362;8.478;2022-12-18T05:59:12;-7.80;1.00
8527;DHT22;4301;48.362;8.478;2022-12-18T06:01:39;-7.80;2.90
8527;DHT22;4301;48.362;8.478;2022-12-18T06:04:06;-7.80;22.60
8527;DHT22;4301;48.362;8.478;2022-12-18T06:06:33;-7.80;42.40
8527;DHT22;4301;48.362;8.478;2022-12-18T06:09:00;-7.60;87.10
8527;DHT22;4301;48.362;8.478;2022-12-18T06:11:27;-7.70;48.70
8527;DHT22;4301;48.362;8.478;2022-12-18T06:13:55;-7.60;92.20
8527;DHT22;4301;48.362;8.478;2022-12-18T06:16:24;-7.50;78.70
8527;DHT22;4301;48.362;8.478;2022-12-18T06:18:51;-7.40;97.40
8527;DHT22;4301;48.362;8.478;2022-12-18T06:21:18;-7.40;80.00
8527;DHT22;4301;48.362;8.478;2022-12-18T06:23:45;-7.30;97.50
8527;DHT22;4301;48.362;8.478;2022-12-18T06:26:12;-7.10;99.90
8527;DHT22;4301;48.362;8.478;2022-12-18T06:28:40;-7.20;79.50
8527;DHT22;4301;48.362;8.478;2022-12-18T06:31:08;-7.20;99.90
8527;DHT22;4301;48.362;8.478;2022-12-18T06:33:37;-7.00;99.90
8527;DHT22;4301;48.362;8.478;2022-12-18T06:36:06;-6.90;99.90
8527;DHT22;4301;48.362;8.478;2022-12-18T06:38:35;-6.80;99.90
8527;DHT22;4301;48.362;8.478;2022-12-18T06:41:06;-6.60;99.90
8527;DHT22;4301;48.362;8.478;2022-12-18T06:43:33;-6.60;99.90
8527;DHT22;4301;48.362;8.478;2022-12-18T06:46:01;-6.50;99.90
8527;DHT22;4301;48.362;8.478;2022-12-18T06:48:28;-6.40;99.90
8527;DHT22;4301;48.362;8.478;2022-12-18T06:50:56;-6.50;99.90
8527;DHT22;4301;48.362;8.478;2022-12-18T06:53:23;-6.40;99.90
8527;DHT22;4301;48.362;8.478;2022-12-18T06:55:50;-6.20;99.90
8527;DHT22;4301;48.362;8.478;2022-12-18T06:58:17;-6.10;99.90
8527;DHT22;4301;48.362;8.478;2022-12-18T07:00:44;-6.00;99.90
8527;DHT22;4301;48.362;8.478;2022-12-18T07:03:12;-6.00;99.90
8527;DHT22;4301;48.362;8.478;2022-12-18T07:05:39;-5.80;99.90
8527;DHT22;4301;48.362;8.478;2022-12-18T07:08:08;-5.70;99.90
8527;DHT22;4301;48.362;8.478;2022-12-18T07:10:41;-5.60;99.90
8527;DHT22;4301;48.362;8.478;2022-12-18T07:13:08;-5.60;99.90
8527;DHT22;4301;48.362;8.478;2022-12-18T07:15:34;-5.70;99.90
8527;DHT22;4301;48.362;8.478;2022-12-18T07:18:01;-5.50;99.90
8527;DHT22;4301;48.362;8.478;2022-12-18T07:20:29;-5.50;99.90
8527;DHT22;4301;48.362;8.478;2022-12-18T07:22:56;-5.50;99.90
8527;DHT22;4301;48.362;8.478;2022-12-18T07:25:24;-5.50;99.90
8527;DHT22;4301;48.362;8.478;2022-12-18T07:27:51;-5.40;99.90
8527;DHT22;4301;48.362;8.478;2022-12-18T07:30:18;-5.40;99.90
8527;DHT22;4301;48.362;8.478;2022-12-18T07:32:45;-5.40;99.90
8527;DHT22;4301;48.362;8.478;2022-12-18T07:35:12;-5.10;99.90
8527;DHT22;4301;48.362;8.478;2022-12-18T07:37:39;-5.30;99.90
8527;DHT22;4301;48.362;8.478;2022-12-18T07:40:07;-5.30;99.90
8527;DHT22;4301;48.362;8.478;2022-12-18T07:42:36;-5.30;99.90
8527;DHT22;4301;48.362;8.478;2022-12-18T07:45:04;-5.20;99.90
8527;DHT22;4301;48.362;8.478;2022-12-18T07:47:33;-5.20;99.90
8527;DHT22;4301;48.362;8.478;2022-12-18T07:50:00;-5.20;99.90
8527;DHT22;4301;48.362;8.478;2022-12-18T07:52:27;-5.20;99.90
8527;DHT22;4301;48.362;8.478;2022-12-18T07:54:54;-5.10;99.90
8527;DHT22;4301;48.362;8.478;2022-12-18T07:57:21;-5.10;99.90
8527;DHT22;4301;48.362;8.478;2022-12-18T07:59:49;-5.10;99.90
8527;DHT22;4301;48.362;8.478;2022-12-18T08:02:16;-5.00;99.90
8527;DHT22;4301;48.362;8.478;2022-12-18T08:04:43;-5.00;99.90
8527;DHT22;4301;48.362;8.478;2022-12-18T08:07:10;-4.90;99.90
8527;DHT22;4301;48.362;8.478;2022-12-18T08:09:37;-4.90;96.90
8527;DHT22;4301;48.362;8.478;2022-12-18T08:12:04;-4.80;97.00
8527;DHT22;4301;48.362;8.478;2022-12-18T08:14:31;-4.80;93.40
8527;DHT22;4301;48.362;8.478;2022-12-18T08:17:00;-4.70;77.10
8527;DHT22;4301;48.362;8.478;2022-12-18T08:19:26;-4.70;82.60
8527;DHT22;4301;48.362;8.478;2022-12-18T08:21:53;-4.70;69.10
8527;DHT22;4301;48.362;8.478;2022-12-18T08:24:20;-4.70;82.40
8527;DHT22;4301;48.362;8.478;2022-12-18T08:26:47;-4.70;75.80
8527;DHT22;4301;48.362;8.478;2022-12-18T08:29:14;-4.60;78.50
8527;DHT22;4301;48.362;8.478;2022-12-18T08:31:41;-4.60;71.90
8527;DHT22;4301;48.362;8.478;2022-12-18T08:34:10;-4.50;64.40
8527;DHT22;4301;48.362;8.478;2022-12-18T08:36:37;-4.50;59.20
8527;DHT22;4301;48.362;8.478;2022-12-18T08:39:03;-4.40;61.80
8527;DHT22;4301;48.362;8.478;2022-12-18T08:41:30;-4.30;58.80
8527;DHT22;4301;48.362;8.478;2022-12-18T08:43:57;-4.40;21.50
8527;DHT22;4301;48.362;8.478;2022-12-18T08:46:43;-4.40;35.70
8527;DHT22;4301;48.362;8.478;2022-12-18T08:49:11;-4.30;24.80
8527;DHT22;4301;48.362;8.478;2022-12-18T08:51:39;-4.20;16.80
8527;DHT22;4301;48.362;8.478;2022-12-18T08:54:06;-4.10;24.70
8527;DHT22;4301;48.362;8.478;2022-12-18T08:56:33;-4.10;1.00
8527;DHT22;4301;48.362;8.478;2022-12-18T08:59:00;-3.90;3.40
8527;DHT22;4301;48.362;8.478;2022-12-18T09:01:27;-3.90;1.00
8527;DHT22;4301;48.362;8.478;2022-12-18T09:03:54;-3.70;1.00
8527;DHT22;4301;48.362;8.478;2022-12-18T09:06:23;-3.80;1.00
8527;DHT22;4301;48.362;8.478;2022-12-18T09:08:52;-3.90;1.00
8527;DHT22;4301;48.362;8.478;2022-12-18T09:11:21;-3.80;1.00
8527;DHT22;4301;48.362;8.478;2022-12-18T09:13:48;-3.50;1.00
8527;DHT22;4301;48.362;8.478;2022-12-18T09:16:16;-3.50;1.00
8527;DHT22;4301;48.362;8.478;2022-12-18T09:18:43;-3.50;1.00
8527;DHT22;4301;48.362;8.478;2022-12-18T09:21:11;-3.50;1.00
8527;DHT22;4301;48.362;8.478;2022-12-18T09:23:40;-3.30;1.00
8527;DHT22;4301;48.362;8.478;2022-12-18T09:26:07;-3.00;1.00
8527;DHT22;4301;48.362;8.478;2022-12-18T09:28:34;-2.80;1.00
8527;DHT22;4301;48.362;8.478;2022-12-18T09:31:04;-2.70;1.00
8527;DHT22;4301;48.362;8.478;2022-12-18T09:33:32;-2.40;99.90
8527;DHT22;4301;48.362;8.478;2022-12-18T09:36:01;-2.00;99.90
8527;DHT22;4301;48.362;8.478;2022-12-18T09:38:28;-2.10;99.90
8527;DHT22;4301;48.362;8.478;2022-12-18T09:41:00;-2.00;99.90
8527;DHT22;4301;48.362;8.478;2022-12-18T09:43:33;-2.00;1.00
8527;DHT22;4301;48.362;8.478;2022-12-18T09:46:04;-2.30;1.00
8527;DHT22;4301;48.362;8.478;2022-12-18T09:48:35;-2.10;1.00
8527;DHT22;4301;48.362;8.478;2022-12-18T09:51:09;-1.80;1.00
8527;DHT22;4301;48.362;8.478;2022-12-18T09:53:39;-1.60;99.90
8527;DHT22;4301;48.362;8.478;2022-12-18T09:56:15;-1.10;1.00
8527;DHT22;4301;48.362;8.478;2022-12-18T09:58:47;-1.00;1.00
8527;DHT22;4301;48.362;8.478;2022-12-18T10:01:20;-0.30;1.00
8527;DHT22;4301;48.362;8.478;2022-12-18T10:03:49;0.00;1.00
8527;DHT22;4301;48.362;8.478;2022-12-18T10:06:22;0.90;1.00
8527;DHT22;4301;48.362;8.478;2022-12-18T10:08:54;1.30;99.90
8527;DHT22;4301;48.362;8.478;2022-12-18T10:11:35;1.90;45.90
8527;DHT22;4301;48.362;8.478;2022-12-18T10:14:09;2.10;1.00
8527;DHT22;4301;48.362;8.478;2022-12-18T10:16:46;2.70;1.00
8527;DHT22;4301;48.362;8.478;2022-12-18T10:19:30;2.10;1.00
8527;DHT22;4301;48.362;8.478;2022-12-18T10:22:07;2.70;1.00
8527;DHT22;4301;48.362;8.478;2022-12-18T10:24:40;2.70;1.00
8527;DHT22;4301;48.362;8.478;2022-12-18T10:27:14;2.40;1.00
8527;DHT22;4301;48.362;8.478;2022-12-18T10:29:42;2.30;1.00
8527;DHT22;4301;48.362;8.478;2022-12-18T10:32:15;2.80;1.00
8527;DHT22;4301;48.362;8.478;2022-12-18T10:34:46;2.50;1.00
8527;DHT22;4301;48.362;8.478;2022-12-18T10:37:16;2.40;1.00
8527;DHT22;4301;48.362;8.478;2022-12-18T10:39:44;2.60;1.00
8527;DHT22;4301;48.362;8.478;2022-12-18T10:42:17;2.60;1.00
8527;DHT22;4301;48.362;8.478;2022-12-18T10:44:44;2.30;1.00
8527;DHT22;4301;48.362;8.478;2022-12-18T10:47:14;2.20;1.00
8527;DHT22;4301;48.362;8.478;2022-12-18T10:49:49;2.00;1.00
8527;DHT22;4301;48.362;8.478;2022-12-18T10:52:18;2.90;1.00
8527;DHT22;4301;48.362;8.478;2022-12-18T10:54:51;3.40;1.00
8527;DHT22;4301;48.362;8.478;2022-12-18T10:57:31;3.60;1.00
8527;DHT22;4301;48.362;8.478;2022-12-18T11:00:03;3.70;99.90
8527;DHT22;4301;48.362;8.478;2022-12-18T11:02:40;4.00;99.90
8527;DHT22;4301;48.362;8.478;2022-12-18T11:05:26;4.70;99.90
8527;DHT22;4301;48.362;8.478;2022-12-18T11:07:54;4.70;99.90
8527;DHT22;4301;48.362;8.478;2022-12-18T11:10:25;4.80;99.90
8527;DHT22;4301;48.362;8.478;2022-12-18T11:12:54;4.60;99.90
8527;DHT22;4301;48.362;8.478;2022-12-18T11:15:24;4.60;99.90
8527;DHT22;4301;48.362;8.478;2022-12-18T11:17:53;5.30;99.90
8527;DHT22;4301;48.362;8.478;2022-12-18T11:20:26;5.20;99.90
8527;DHT22;4301;48.362;8.478;2022-12-18T11:22:56;5.20;99.90
8527;DHT22;4301;48.362;8.478;2022-12-18T11:25:23;4.90;99.90
8527;DHT22;4301;48.362;8.478;2022-12-18T11:27:57;4.70;99.90
8527;DHT22;4301;48.362;8.478;2022-12-18T11:30:26;4.10;99.90
8527;DHT22;4301;48.362;8.478;2022-12-18T11:32:56;3.80;99.90
8527;DHT22;4301;48.362;8.478;2022-12-18T11:35:34;3.70;99.90
8527;DHT22;4301;48.362;8.478;2022-12-18T11:38:05;3.90;99.90
8527;DHT22;4301;48.362;8.478;2022-12-18T11:40:35;3.60;99.90
8527;DHT22;4301;48.362;8.478;2022-12-18T11:43:08;3.80;99.90
8527;DHT22;4301;48.362;8.478;2022-12-18T11:45:40;4.30;99.90
8527;DHT22;4301;48.362;8.478;2022-12-18T11:48:14;4.00;99.90
8527;DHT22;4301;48.362;8.478;2022-12-18T11:50:48;3.40;99.90
8527;DHT22;4301;48.362;8.478;2022-12-18T11:53:16;3.40;99.90
8527;DHT22;4301;48.362;8.478;2022-12-18T11:55:51;3.00;99.90
8527;DHT22;4301;48.362;8.478;2022-12-18T11:58:30;3.40;99.90
8527;DHT22;4301;48.362;8.478;2022-12-18T12:01:10;3.60;99.90
8527;DHT22;4301;48.362;8.478;2022-12-18T12:06:38;3.70;99.90
8527;DHT22;4301;48.362;8.478;2022-12-18T12:09:13;3.90;99.90
8527;DHT22;4301;48.362;8.478;2022-12-18T12:11:55;3.90;99.90
8527;DHT22;4301;48.362;8.478;2022-12-18T12:14:38;4.50;99.90
8527;DHT22;4301;48.362;8.478;2022-12-18T12:17:16;3.90;99.90
8527;DHT22;4301;48.362;8.478;2022-12-18T12:19:50;3.60;99.90
8527;DHT22;4301;48.362;8.478;2022-12-18T12:22:24;3.10;99.90
8527;DHT22;4301;48.362;8.478;2022-12-18T12:25:05;3.30;99.90
8527;DHT22;4301;48.362;8.478;2022-12-18T12:27:42;3.20;99.90
8527;DHT22;4301;48.362;8.478;2022-12-18T12:30:18;3.40;99.90
8527;DHT22;4301;48.362;8.478;2022-12-18T12:32:57;3.30;99.90
8527;DHT22;4301;48.362;8.478;2022-12-18T12:35:35;3.50;99.90
8527;DHT22;4301;48.362;8.478;2022-12-18T12:38:09;3.40;99.90
8527;DHT22;4301;48.362;8.478;2022-12-18T12:40:41;3.40;99.90
8527;DHT22;4301;48.362;8.478;2022-12-18T12:43:20;3.10;99.90
8527;DHT22;4301;48.362;8.478;2022-12-18T12:45:50;2.80;99.90
8527;DHT22;4301;48.362;8.478;2022-12-18T12:48:28;2.60;99.90
8527;DHT22;4301;48.362;8.478;2022-12-18T12:51:00;2.70;99.90
8527;DHT22;4301;48.362;8.478;2022-12-18T12:53:30;2.30;99.90
8527;DHT22;4301;48.362;8.478;2022-12-18T12:56:01;2.40;99.90
8527;DHT22;4301;48.362;8.478;2022-12-18T12:58:34;2.00;99.90
8527;DHT22;4301;48.362;8.478;2022-12-18T13:01:15;1.40;99.90
8527;DHT22;4301;48.362;8.478;2022-12-18T13:03:49;1.60;99.90
8527;DHT22;4301;48.362;8.478;2022-12-18T13:06:29;1.60;99.90
8527;DHT22;4301;48.362;8.478;2022-12-18T13:08:59;0.90;1.00
8527;DHT22;4301;48.362;8.478;2022-12-18T13:11:38;0.90;1.00
8527;DHT22;4301;48.362;8.478;2022-12-18T13:14:26;0.70;1.00
8527;DHT22;4301;48.362;8.478;2022-12-18T13:17:15;0.90;56.00
8527;DHT22;4301;48.362;8.478;2022-12-18T13:19:43;0.90;1.00
8527;DHT22;4301;48.362;8.478;2022-12-18T13:22:21;1.20;1.00
8527;DHT22;4301;48.362;8.478;2022-12-18T13:24:48;1.50;1.00
8527;DHT22;4301;48.362;8.478;2022-12-18T13:27:46;1.60;1.00
8527;DHT22;4301;48.362;8.478;2022-12-18T13:30:45;2.20;1.00
8527;DHT22;4301;48.362;8.478;2022-12-18T13:33:40;2.80;99.90
8527;DHT22;4301;48.362;8.478;2022-12-18T13:36:28;2.80;99.90
8527;DHT22;4301;48.362;8.478;2022-12-18T13:39:21;2.20;99.90
8527;DHT22;4301;48.362;8.478;2022-12-18T13:41:50;1.80;99.90
8527;DHT22;4301;48.362;8.478;2022-12-18T13:44:25;1.80;99.90
8527;DHT22;4301;48.362;8.478;2022-12-18T13:46:53;1.60;99.90
8527;DHT22;4301;48.362;8.478;2022-12-18T13:49:25;1.00;1.00
8527;DHT22;4301;48.362;8.478;2022-12-18T13:51:55;0.90;1.00
8527;DHT22;4301;48.362;8.478;2022-12-18T13:54:33;0.80;99.90
8527;DHT22;4301;48.362;8.478;2022-12-18T13:57:01;0.60;72.70
8527;DHT22;4301;48.362;8.478;2022-12-18T13:59:34;0.50;1.00
8527;DHT22;4301;48.362;8.478;2022-12-18T14:02:14;0.10;99.90
8527;DHT22;4301;48.362;8.478;2022-12-18T14:04:45;-0.30;1.00
8527;DHT22;4301;48.362;8.478;2022-12-18T14:07:13;-0.30;1.00
8527;DHT22;4301;48.362;8.478;2022-12-18T14:09:43;-0.40;1.00
8527;DHT22;4301;48.362;8.478;2022-12-18T14:12:16;-0.40;1.00
8527;DHT22;4301;48.362;8.478;2022-12-18T14:15:03;-0.70;1.00
8527;DHT22;4301;48.362;8.478;2022-12-18T14:17:31;-0.90;1.00
8527;DHT22;4301;48.362;8.478;2022-12-18T14:20:00;-1.10;99.90
8527;DHT22;4301;48.362;8.478;2022-12-18T14:22:27;-1.40;99.90
8527;DHT22;4301;48.362;8.478;2022-12-18T14:25:22;-1.50;1.00
8527;DHT22;4301;48.362;8.478;2022-12-18T14:27:51;-1.50;1.00
8527;DHT22;4301;48.362;8.478;2022-12-18T14:30:26;-1.50;99.90
8527;DHT22;4301;48.362;8.478;2022-12-18T14:33:03;-1.60;99.90
8527;DHT22;4301;48.362;8.478;2022-12-18T14:35:32;-1.80;99.90
8527;DHT22;4301;48.362;8.478;2022-12-18T14:38:21;-1.80;1.00
8527;DHT22;4301;48.362;8.478;2022-12-18T14:40:52;-1.80;99.90
8527;DHT22;4301;48.362;8.478;2022-12-18T14:43:20;-1.70;99.90
8527;DHT22;4301;48.362;8.478;2022-12-18T14:45:48;-1.80;99.90
8527;DHT22;4301;48.362;8.478;2022-12-18T14:48:16;-2.10;1.00
8527;DHT22;4301;48.362;8.478;2022-12-18T14:50:54;-2.20;1.00
8527;DHT22;4301;48.362;8.478;2022-12-18T14:53:26;-2.30;1.00
8527;DHT22;4301;48.362;8.478;2022-12-18T14:55:55;-2.30;1.00
8527;DHT22;4301;48.362;8.478;2022-12-18T14:58:22;-2.40;1.00
8527;DHT22;4301;48.362;8.478;2022-12-18T15:00:49;-2.50;1.00
8527;DHT22;4301;48.362;8.478;2022-12-18T15:03:19;-2.70;1.00
8527;DHT22;4301;48.362;8.478;2022-12-18T15:05:48;-2.60;1.00
8527;DHT22;4301;48.362;8.478;2022-12-18T15:08:29;-2.70;1.00
8527;DHT22;4301;48.362;8.478;2022-12-18T15:10:57;-2.80;1.00
8527;DHT22;4301;48.362;8.478;2022-12-18T15:13:24;-3.00;1.00
8527;DHT22;4301;48.362;8.478;2022-12-18T15:15:52;-3.00;1.00
8527;DHT22;4301;48.362;8.478;2022-12-18T15:18:21;-3.10;1.00
8527;DHT22;4301;48.362;8.478;2022-12-18T15:20:53;-3.20;1.00
8527;DHT22;4301;48.362;8.478;2022-12-18T15:23:22;-3.10;1.00
8527;DHT22;4301;48.362;8.478;2022-12-18T15:25:55;-3.20;1.00
8527;DHT22;4301;48.362;8.478;2022-12-18T15:28:25;-3.20;1.00
8527;DHT22;4301;48.362;8.478;2022-12-18T15:31:20;-3.20;1.00
8527;DHT22;4301;48.362;8.478;2022-12-18T15:34:05;-3.30;1.00
8527;DHT22;4301;48.362;8.478;2022-12-18T15:36:37;-3.50;9.30
8527;DHT22;4301;48.362;8.478;2022-12-18T15:39:04;-3.50;23.80
8527;DHT22;4301;48.362;8.478;2022-12-18T15:41:33;-3.50;34.30
8527;DHT22;4301;48.362;8.478;2022-12-18T15:44:00;-3.50;27.90
8527;DHT22;4301;48.362;8.478;2022-12-18T15:46:26;-3.50;40.60
8527;DHT22;4301;48.362;8.478;2022-12-18T15:48:54;-3.50;39.10
8527;DHT22;4301;48.362;8.478;2022-12-18T15:51:23;-3.40;42.60
8527;DHT22;4301;48.362;8.478;2022-12-18T15:53:53;-3.50;20.20
8527;DHT22;4301;48.362;8.478;2022-12-18T15:56:21;-3.50;42.80
8527;DHT22;4301;48.362;8.478;2022-12-18T15:59:09;-3.50;57.50
8527;DHT22;4301;48.362;8.478;2022-12-18T16:01:36;-3.40;62.30
8527;DHT22;4301;48.362;8.478;2022-12-18T16:04:03;-3.40;55.90
8527;DHT22;4301;48.362;8.478;2022-12-18T16:06:30;-3.40;35.00
8527;DHT22;4301;48.362;8.478;2022-12-18T16:08:59;-3.40;15.90
8527;DHT22;4301;48.362;8.478;2022-12-18T16:11:27;-3.40;41.20
8527;DHT22;4301;48.362;8.478;2022-12-18T16:14:20;-3.40;62.10
8527;DHT22;4301;48.362;8.478;2022-12-18T16:16:50;-3.30;59.90
8527;DHT22;4301;48.362;8.478;2022-12-18T16:19:17;-3.30;25.80
8527;DHT22;4301;48.362;8.478;2022-12-18T16:21:46;-3.30;32.90
8527;DHT22;4301;48.362;8.478;2022-12-18T16:24:17;-3.40;38.90
8527;DHT22;4301;48.362;8.478;2022-12-18T16:26:45;-3.40;54.70
8527;DHT22;4301;48.362;8.478;2022-12-18T16:29:12;-3.40;77.90
8527;DHT22;4301;48.362;8.478;2022-12-18T16:31:39;-3.50;53.70
8527;DHT22;4301;48.362;8.478;2022-12-18T16:34:15;-3.50;57.60